Time;durP1;ratioP1;P1;durP2;ratioP2;P2;SDS_P1;SDS_P2;PMS_P1;PMS_P2;Temp;Humidity;BMP_temperature;BMP_pressure;BME280_temperature;BME280_humidity;BME280_pressure;Samples;Min_cycle;Max_cycle;Signal;HPM_P1;HPM_P2
2021/11/11 00:03:58;;;;;;;10.78;5.47;;;;;;;-1.89;58.53;101555.00;371617;141;871636;-54
2021/11/11 00:05:00;;;;;;;13.28;6.43;;;;;;;-1.99;58.72;101561.12;365101;146;859863;-55
2021/11/11 00:06:02;;;;;;;14.39;6.99;;;;;;;-1.98;58.71;101567.95;364799;146;861115;-55
2021/11/11 00:07:05;;;;;;;14.25;5.90;;;;;;;-1.96;59.21;101560.43;362873;146;860585;-55
2021/11/11 00:08:06;;;;;;;19.60;8.18;;;;;;;-1.92;58.86;101554.78;365267;144;861605;-54
2021/11/11 00:09:08;;;;;;;19.29;8.31;;;;;;;-1.85;58.93;101553.56;363887;147;857741;-54
2021/11/11 00:10:12;;;;;;;14.93;6.39;;;;;;;-1.79;58.76;101554.84;364676;146;858583;-55
2021/11/11 00:11:13;;;;;;;16.44;7.19;;;;;;;-1.71;58.62;101549.41;365016;146;857815;-54
2021/11/11 00:12:15;;;;;;;16.05;6.81;;;;;;;-1.61;58.71;101549.25;365418;147;865312;-54
2021/11/11 00:13:19;;;;;;;14.25;6.49;;;;;;;-1.54;58.64;101543.83;364469;147;857281;-55
2021/11/11 00:14:21;;;;;;;16.51;7.38;;;;;;;-1.44;58.32;101545.31;362095;146;856711;-55
2021/11/11 00:15:23;;;;;;;21.45;8.45;;;;;;;-1.35;58.21;101548.46;364034;147;858414;-55
2021/11/11 00:16:25;;;;;;;15.66;7.98;;;;;;;-1.25;58.04;101541.45;363082;147;859021;-54
2021/11/11 00:17:27;;;;;;;13.24;6.49;;;;;;;-1.16;57.69;101549.67;363501;146;857544;-54
2021/11/11 00:18:29;;;;;;;13.81;7.26;;;;;;;-1.07;57.49;101544.33;358194;150;859126;-55
2021/11/11 00:19:31;;;;;;;13.75;7.36;;;;;;;-0.99;57.45;101542.30;367645;146;859527;-55
2021/11/11 00:20:33;;;;;;;13.66;6.11;;;;;;;-0.91;57.15;101546.21;364576;146;865713;-55
2021/11/11 00:21:35;;;;;;;15.17;7.40;;;;;;;-0.84;57.01;101543.28;363157;145;859090;-54
2021/11/11 00:22:37;;;;;;;17.22;7.83;;;;;;;-0.77;56.86;101542.89;364918;145;856776;-57
2021/11/11 00:23:39;;;;;;;15.73;7.14;;;;;;;-0.69;56.65;101550.12;365751;146;864418;-56
2021/11/11 00:24:41;;;;;;;12.64;6.34;;;;;;;-0.65;56.51;101540.23;365241;145;857275;-56
2021/11/11 00:25:43;;;;;;;17.60;8.05;;;;;;;-0.59;56.37;101535.53;365988;145;865018;-56
2021/11/11 00:26:45;;;;;;;16.67;7.63;;;;;;;-0.56;56.39;101541.59;363396;147;859177;-56
2021/11/11 00:27:47;;;;;;;16.86;7.89;;;;;;;-0.50;56.20;101536.92;361932;145;859500;-56
2021/11/11 00:28:49;;;;;;;13.66;6.63;;;;;;;-0.45;55.99;101543.17;365135;145;856175;-56
2021/11/11 00:29:51;;;;;;;17.65;7.99;;;;;;;-0.43;56.07;101543.26;364513;145;856363;-55
2021/11/11 00:30:53;;;;;;;12.37;6.15;;;;;;;-0.39;55.92;101535.92;363166;146;863945;-56
2021/11/11 00:31:54;;;;;;;16.37;5.98;;;;;;;-0.36;55.81;101542.85;366125;145;857438;-54
2021/11/11 00:32:56;;;;;;;13.93;6.95;;;;;;;-0.34;55.71;101537.09;364254;146;864008;-55
2021/11/11 00:33:58;;;;;;;13.16;6.01;;;;;;;-0.32;55.67;101527.88;364250;146;856652;-55
2021/11/11 00:35:00;;;;;;;13.31;6.71;;;;;;;-0.30;55.57;101523.77;362700;146;864161;-55
2021/11/11 00:36:02;;;;;;;13.96;8.22;;;;;;;-0.25;55.60;101533.35;364052;145;856281;-55
2021/11/11 00:37:04;;;;;;;16.26;7.11;;;;;;;;;;362249;145;864400;-55
2021/11/11 00:38:05;;;;;;;17.29;8.40;;;;;;;;;;363007;146;856524;-55
2021/11/11 00:39:07;;;;;;;8.34;4.74;;;;;;;;;;366365;145;863894;-55
2021/11/11 00:42:04;;;;;;;13.46;7.16;;;;;;;-0.08;55.24;101514.89;374278;141;879831;-54
2021/11/11 00:43:06;;;;;;;16.65;7.53;;;;;;;-0.17;55.25;101517.75;368670;144;857359;-54
2021/11/11 00:44:08;;;;;;;12.11;7.11;;;;;;;-0.15;55.18;101518.72;369245;144;857230;-56
2021/11/11 00:45:10;;;;;;;17.49;8.22;;;;;;;-0.16;55.18;101516.09;366624;144;857147;-55
2021/11/11 00:46:13;;;;;;;15.88;7.89;;;;;;;-0.14;55.14;101511.98;367727;144;857236;-54
2021/11/11 00:47:15;;;;;;;14.39;7.63;;;;;;;-0.13;55.09;101511.19;370233;144;856677;-55
2021/11/11 00:48:16;;;;;;;13.70;7.49;;;;;;;-0.11;55.03;101516.36;372113;144;857231;-55
2021/11/11 00:49:18;;;;;;;10.29;5.32;;;;;;;-0.11;55.11;101513.81;365967;144;857291;-54
2021/11/11 00:50:23;;;;;;;16.34;6.76;;;;;;;-0.12;55.06;101506.96;365990;144;865096;-56
2021/11/11 00:51:25;;;;;;;13.06;6.09;;;;;;;-0.12;55.05;101505.31;365963;144;858668;-54
2021/11/11 00:52:28;;;;;;;14.51;7.17;;;;;;;;;;367062;144;859086;-55
2021/11/11 00:53:30;;;;;;;12.48;6.06;;;;;;;;;;368814;144;857355;-55
2021/11/11 00:54:31;;;;;;;11.00;6.15;;;;;;;;;;368989;144;857330;-55
2021/11/11 00:55:34;;;;;;;15.13;5.79;;;;;;;;;;366904;144;866520;-56
2021/11/11 00:56:36;;;;;;;7.69;4.83;;;;;;;;;;366888;144;857211;-55
2021/11/11 00:57:38;;;;;;;13.83;7.10;;;;;;;;;;366163;144;864947;-54
2021/11/11 00:58:40;;;;;;;9.30;4.34;;;;;;;;;;367329;144;858930;-54
2021/11/11 00:59:42;;;;;;;12.61;5.46;;;;;;;;;;367918;144;859486;-55
2021/11/11 01:00:44;;;;;;;14.16;6.05;;;;;;;;;;362114;144;865820;-54
2021/11/11 01:01:45;;;;;;;11.32;6.00;;;;;;;;;;363223;147;858611;-55
2021/11/11 01:02:48;;;;;;;11.41;6.27;;;;;;;;;;365374;147;865062;-55
2021/11/11 01:03:51;;;;;;;10.74;6.19;;;;;;;;;;364950;147;857517;-55
2021/11/11 01:04:52;;;;;;;13.43;6.79;;;;;;;;;;362543;147;865099;-54
2021/11/11 01:05:54;;;;;;;11.27;6.05;;;;;;;;;;360340;147;865066;-55
2021/11/11 01:06:55;;;;;;;11.21;6.29;;;;;;;;;;362894;146;861939;-54
2021/11/11 01:07:57;;;;;;;12.33;6.35;;;;;;;;;;361151;147;866855;-60
2021/11/11 01:08:59;;;;;;;14.20;6.35;;;;;;;;;;360994;147;859414;-54
2021/11/11 01:10:01;;;;;;;12.96;6.27;;;;;;;;;;363320;147;865139;-54
2021/11/11 01:11:03;;;;;;;9.59;5.64;;;;;;;;;;362890;146;863485;-55
2021/11/11 01:12:05;;;;;;;13.27;6.39;;;;;;;;;;362238;147;857411;-55
2021/11/11 01:13:07;;;;;;;11.81;5.81;;;;;;;;;;362050;147;858265;-55
2021/11/11 01:14:08;;;;;;;10.52;5.66;;;;;;;;;;363504;147;859154;-55
2021/11/11 01:15:11;;;;;;;11.44;5.81;;;;;;;;;;362782;147;865407;-55
2021/11/11 01:16:14;;;;;;;11.88;5.80;;;;;;;;;;359712;147;865823;-55
2021/11/11 01:17:15;;;;;;;12.36;6.41;;;;;;;;;;363062;146;864968;-56
2021/11/11 01:18:17;;;;;;;15.02;6.55;;;;;;;;;;350894;151;865793;-54
2021/11/11 01:19:18;;;;;;;14.21;5.86;;;;;;;;;;360321;147;858651;-54
2021/11/11 01:20:20;;;;;;;11.34;6.45;;;;;;;;;;362554;147;865533;-54
2021/11/11 01:21:22;;;;;;;12.76;6.79;;;;;;;;;;363362;146;857349;-56
2021/11/11 01:22:24;;;;;;;11.82;5.79;;;;;;;;;;362304;147;865060;-56
2021/11/11 01:23:25;;;;;;;10.46;5.68;;;;;;;;;;362868;147;865665;-55
2021/11/11 01:24:27;;;;;;;8.66;4.23;;;;;;;;;;363539;146;859217;-55
2021/11/11 01:25:48;;;;;;;14.05;5.61;;;;;;;;;;363560;146;866886;-55
2021/11/11 01:26:50;;;;;;;11.19;5.43;;;;;;;;;;348275;151;857391;-57
2021/11/11 01:27:52;;;;;;;9.61;5.79;;;;;;;;;;348847;151;857320;-56
2021/11/11 01:28:53;;;;;;;10.02;5.11;;;;;;;;;;345978;152;865113;-55
2021/11/11 01:29:55;;;;;;;10.83;6.04;;;;;;;;;;348067;154;857548;-56
2021/11/11 01:30:57;;;;;;;9.61;4.96;;;;;;;;;;348483;151;865106;-55
2021/11/11 01:31:59;;;;;;;12.94;4.76;;;;;;;;;;346836;152;866943;-55
2021/11/11 01:33:00;;;;;;;7.28;3.93;;;;;;;;;;346060;153;856525;-54
2021/11/11 01:34:02;;;;;;;8.06;4.79;;;;;;;;;;347638;154;859285;-54
2021/11/11 01:35:04;;;;;;;8.39;4.93;;;;;;;;;;345630;151;866335;-54
2021/11/11 01:36:06;;;;;;;9.54;5.56;;;;;;;;;;347914;152;865346;-56
2021/11/11 01:37:08;;;;;;;9.51;4.78;;;;;;;;;;348269;151;865814;-54
2021/11/11 01:38:09;;;;;;;12.36;5.32;;;;;;;;;;349050;151;865452;-56
2021/11/11 01:39:11;;;;;;;9.88;5.91;;;;;;;;;;347476;152;864245;-55
2021/11/11 01:40:16;;;;;;;9.58;4.97;;;;;;;;;;346664;151;857428;-55
2021/11/11 01:41:17;;;;;;;11.54;5.32;;;;;;;;;;350451;153;857808;-55
2021/11/11 01:42:19;;;;;;;7.86;4.86;;;;;;;;;;348481;151;857813;-55
2021/11/11 01:43:21;;;;;;;9.45;5.13;;;;;;;;;;348672;153;866939;-55
2021/11/11 01:44:22;;;;;;;13.49;5.48;;;;;;;;;;347735;151;860459;-55
2021/11/11 01:45:24;;;;;;;9.81;5.64;;;;;;;;;;348169;151;865030;-54
2021/11/11 01:46:28;;;;;;;11.36;5.89;;;;;;;;;;348546;152;857351;-55
2021/11/11 01:47:29;;;;;;;8.73;4.73;;;;;;;;;;349359;154;859118;-56
2021/11/11 01:48:31;;;;;;;11.63;5.54;;;;;;;;;;350093;151;865335;-55
2021/11/11 01:49:32;;;;;;;13.36;6.29;;;;;;;;;;348785;151;857514;-55
2021/11/11 01:50:35;;;;;;;10.47;5.73;;;;;;;;;;349576;153;862273;-54
2021/11/11 01:51:36;;;;;;;9.13;4.71;;;;;;;;;;350031;151;857271;-55
2021/11/11 01:52:38;;;;;;;10.02;5.58;;;;;;;;;;349804;151;857388;-55
2021/11/11 01:53:39;;;;;;;10.15;6.09;;;;;;;;;;349524;151;866218;-55
2021/11/11 01:54:41;;;;;;;7.59;4.18;;;;;;;;;;349183;154;865814;-54
2021/11/11 01:55:43;;;;;;;10.95;5.63;;;;;;;;;;348612;154;866894;-55
2021/11/11 01:56:45;;;;;;;9.63;5.35;;;;;;;;;;346332;152;861765;-54
2021/11/11 01:57:46;;;;;;;14.19;5.27;;;;;;;;;;347593;153;858807;-55
2021/11/11 01:58:48;;;;;;;8.07;5.11;;;;;;;;;;347159;154;862722;-55
2021/11/11 02:00:09;;;;;;;11.25;5.99;;;;;;;;;;349010;151;857538;-54
2021/11/11 02:01:11;;;;;;;8.94;5.27;;;;;;;;;;340809;156;857272;-54
2021/11/11 02:02:13;;;;;;;12.37;5.34;;;;;;;;;;341702;156;857214;-54
2021/11/11 02:03:15;;;;;;;10.09;4.55;;;;;;;;;;339217;156;865103;-54
2021/11/11 02:04:16;;;;;;;10.97;6.43;;;;;;;;;;340880;156;857349;-54
2021/11/11 02:05:18;;;;;;;8.95;5.76;;;;;;;;;;340874;156;864978;-56
2021/11/11 02:06:20;;;;;;;11.99;6.10;;;;;;;;;;344508;156;857461;-57
2021/11/11 02:07:22;;;;;;;9.71;5.25;;;;;;;;;;340821;156;857296;-55
2021/11/11 02:08:24;;;;;;;12.78;6.07;;;;;;;;;;339338;156;857397;-55
2021/11/11 02:09:26;;;;;;;11.57;5.38;;;;;;;;;;339667;158;866357;-55
2021/11/11 02:10:30;;;;;;;12.11;5.56;;;;;;;;;;339573;156;866300;-55
2021/11/11 02:11:32;;;;;;;9.44;4.80;;;;;;;;;;341654;156;858443;-56
2021/11/11 02:12:33;;;;;;;14.01;5.52;;;;;;;;;;341713;156;857429;-56
2021/11/11 02:13:35;;;;;;;8.89;4.72;;;;;;;;;;340091;156;857382;-54
2021/11/11 02:14:36;;;;;;;10.12;5.53;;;;;;;;;;341580;156;857476;-54
2021/11/11 02:15:38;;;;;;;12.14;4.96;;;;;;;;;;340962;156;857793;-57
2021/11/11 02:16:40;;;;;;;13.40;5.52;;;;;;;;;;338950;156;865419;-55
2021/11/11 02:17:41;;;;;;;7.94;4.52;;;;;;;;;;339072;156;857310;-55
2021/11/11 02:18:43;;;;;;;8.27;5.25;;;;;;;;;;340604;156;857341;-54
2021/11/11 02:19:45;;;;;;;11.69;5.16;;;;;;;;;;343478;156;865364;-54
2021/11/11 02:20:47;;;;;;;9.40;5.10;;;;;;;;;;339438;156;865103;-54
2021/11/11 02:21:52;;;;;;;7.06;4.39;;;;;;;;;;340178;156;857428;-54
2021/11/11 02:22:54;;;;;;;11.25;4.68;;;;;;;;;;338062;158;857307;-56
2021/11/11 02:23:56;;;;;;;6.55;4.36;;;;;;;;;;339952;156;857508;-56
2021/11/11 02:24:57;;;;;;;9.47;5.21;;;;;;;;;;340137;156;860352;-55
2021/11/11 02:25:59;;;;;;;8.44;3.76;;;;;;;;;;339306;156;865746;-55
2021/11/11 02:27:01;;;;;;;6.18;4.18;;;;;;;;;;338930;158;857506;-54
2021/11/11 02:28:04;;;;;;;9.04;5.29;;;;;;;;;;339735;156;856519;-54
2021/11/11 02:29:06;;;;;;;9.84;5.19;;;;;;;;;;338292;156;865294;-54
2021/11/11 02:30:09;;;;;;;10.41;5.41;;;;;;;;;;340102;158;857339;-54
2021/11/11 02:31:11;;;;;;;8.58;4.35;;;;;;;;;;339474;156;865072;-54
2021/11/11 02:32:12;;;;;;;10.54;4.87;;;;;;;;;;340134;156;857234;-55
2021/11/11 02:33:18;;;;;;;12.69;5.99;;;;;;;;;;338028;156;865249;-55
2021/11/11 02:34:20;;;;;;;12.92;6.15;;;;;;;;;;337850;158;859298;-56
2021/11/11 02:35:21;;;;;;;10.91;5.30;;;;;;;;;;339860;156;857787;-55
2021/11/11 02:36:25;;;;;;;11.16;4.69;;;;;;;;;;339463;155;858711;-55
2021/11/11 02:37:29;;;;;;;6.44;4.29;;;;;;;;;;338785;158;858652;-55
2021/11/11 02:38:32;;;;;;;7.87;4.91;;;;;;;;;;338628;156;864813;-55
2021/11/11 02:39:34;;;;;;;10.13;5.51;;;;;;;;;;339673;156;857725;-56
2021/11/11 02:40:36;;;;;;;9.08;5.27;;;;;;;;;;338748;156;857920;-55
2021/11/11 02:41:38;;;;;;;10.52;5.73;;;;;;;;;;337774;158;859207;-55
2021/11/11 02:42:40;;;;;;;9.48;4.96;;;;;;;;;;338928;156;857410;-55
2021/11/11 02:43:42;;;;;;;8.89;4.83;;;;;;;;;;337353;156;866873;-55
2021/11/11 02:44:44;;;;;;;9.70;3.91;;;;;;;;;;338845;158;857625;-54
2021/11/11 02:45:46;;;;;;;7.34;3.66;;;;;;;;;;338874;156;859672;-55
2021/11/11 02:46:48;;;;;;;5.35;3.37;;;;;;;;;;340505;156;865532;-55
2021/11/11 02:47:51;;;;;;;9.57;5.33;;;;;;;;;;337035;158;867090;-54
2021/11/11 02:48:52;;;;;;;9.33;4.79;;;;;;;;;;326814;162;865993;-55
2021/11/11 02:49:54;;;;;;;6.36;3.74;;;;;;;;;;323508;163;865906;-55
2021/11/11 02:50:55;;;;;;;9.31;5.19;;;;;;;;;;324057;163;865134;-55
2021/11/11 02:51:57;;;;;;;8.42;4.66;;;;;;;;;;324010;163;865265;-55
2021/11/11 02:52:59;;;;;;;8.31;3.94;;;;;;;;;;331772;159;867011;-54
2021/11/11 02:54:00;;;;;;;9.98;5.02;;;;;;;;;;323813;163;864951;-54
2021/11/11 02:55:02;;;;;;;11.13;5.24;;;;;;;;;;325112;163;865766;-55
2021/11/11 02:56:04;;;;;;;6.71;4.24;;;;;;;;;;324790;163;860508;-55
2021/11/11 02:57:22;;;;;;;9.42;4.55;;;;;;;;;;328576;161;859194;-55
2021/11/11 02:58:24;;;;;;;10.06;4.76;;;;;;;;;;327623;161;864940;-54
2021/11/11 02:59:26;;;;;;;6.10;3.16;;;;;;;;;;326165;164;857336;-55
2021/11/11 03:00:31;;;;;;;7.48;4.63;;;;;;;;;;332366;159;859029;-55
2021/11/11 03:01:33;;;;;;;7.79;4.36;;;;;;;;;;331070;161;858404;-54
2021/11/11 03:02:35;;;;;;;7.83;4.62;;;;;;;;;;338265;156;857706;-55
2021/11/11 03:03:37;;;;;;;9.96;4.49;;;;;;;;;;337627;155;859158;-55
2021/11/11 03:04:38;;;;;;;10.07;5.39;;;;;;;;;;331270;161;866063;-55
2021/11/11 03:05:40;;;;;;;9.61;4.21;;;;;;;;;;330974;161;858360;-55
2021/11/11 03:06:42;;;;;;;7.59;4.44;;;;;;;;;;334456;156;865847;-54
2021/11/11 03:07:44;;;;;;;10.14;4.90;;;;;;;;;;337868;156;859221;-55
2021/11/11 03:08:45;;;;;;;8.19;4.46;;;;;;;;;;337305;158;867283;-55
2021/11/11 03:09:47;;;;;;;8.64;5.29;;;;;;;;;;336464;156;866682;-55
2021/11/11 03:10:49;;;;;;;7.18;4.37;;;;;;;;;;337965;155;859322;-55
2021/11/11 03:11:53;;;;;;;6.96;4.27;;;;;;;;;;338219;156;859144;-54
2021/11/11 03:12:54;;;;;;;10.07;5.04;;;;;;;;;;338407;158;864882;-56
2021/11/11 03:13:56;;;;;;;8.71;4.40;;;;;;;;;;339060;157;859606;-54
2021/11/11 03:14:57;;;;;;;7.97;4.21;;;;;;;;;;339366;155;857900;-54
2021/11/11 03:15:59;;;;;;;12.62;5.45;;;;;;;;;;337714;158;857554;-54
2021/11/11 03:17:01;;;;;;;8.94;4.91;;;;;;;;;;337222;156;862009;-55
2021/11/11 03:18:03;;;;;;;6.59;4.49;;;;;;;;;;339918;155;857980;-55
2021/11/11 03:19:04;;;;;;;9.56;4.06;;;;;;;;;;337999;156;857111;-55
2021/11/11 03:20:07;;;;;;;10.99;5.22;;;;;;;;;;337234;156;864873;-55
2021/11/11 03:21:09;;;;;;;8.42;4.60;;;;;;;;;;339304;155;857161;-54
2021/11/11 03:22:11;;;;;;;11.76;4.71;;;;;;;;;;338972;155;858691;-54
2021/11/11 03:23:13;;;;;;;7.48;3.95;;;;;;;;;;340305;156;865046;-57
2021/11/11 03:24:15;;;;;;;10.01;4.76;;;;;;;;;;339810;156;857703;-55
2021/11/11 04:03:58;;;;;;;5.77;2.89;;;;;;;-1.99;62.33;101286.08;370665;142;870589;-55
2021/11/11 04:05:00;;;;;;;6.82;3.21;;;;;;;-2.14;62.96;101285.95;361729;145;859112;-56
2021/11/11 04:06:02;;;;;;;4.94;3.05;;;;;;;-2.16;63.08;101279.89;361723;145;859138;-56
2021/11/11 04:07:04;;;;;;;5.19;2.95;;;;;;;-2.17;62.86;101281.56;363316;144;859070;-56
2021/11/11 04:08:06;;;;;;;6.30;3.83;;;;;;;-2.15;63.05;101286.72;361551;144;864619;-57
2021/11/11 04:09:08;;;;;;;7.33;4.39;;;;;;;-2.12;62.89;101289.46;355426;148;856392;-56
2021/11/11 04:10:11;;;;;;;4.83;3.27;;;;;;;-2.08;62.86;101283.84;354526;148;858910;-57
2021/11/11 04:11:12;;;;;;;7.11;3.89;;;;;;;-2.02;62.77;101289.31;361614;145;856322;-54
2021/11/11 04:12:14;;;;;;;7.49;5.13;;;;;;;-1.95;62.82;101288.92;363959;145;856351;-55
2021/11/11 04:13:16;;;;;;;8.20;5.34;;;;;;;-1.89;62.72;101292.64;362584;145;859851;-57
2021/11/11 04:14:18;;;;;;;8.30;4.71;;;;;;;-1.83;62.66;101287.95;360281;146;859923;-55
2021/11/11 04:15:20;;;;;;;7.09;4.27;;;;;;;-1.75;62.20;101284.23;365582;145;857233;-54
2021/11/11 04:16:22;;;;;;;11.23;4.82;;;;;;;-1.68;62.11;101277.87;360294;146;856248;-56
2021/11/11 04:17:24;;;;;;;10.55;5.40;;;;;;;-1.60;61.70;101283.45;360520;146;857291;-53
2021/11/11 04:18:26;;;;;;;6.72;3.38;;;;;;;-1.56;61.74;101280.32;363641;145;859207;-56
2021/11/11 04:19:27;;;;;;;9.07;5.12;;;;;;;-1.50;61.40;101279.06;368261;145;857909;-57
2021/11/11 04:20:29;;;;;;;7.92;4.68;;;;;;;-1.43;61.23;101281.98;364631;146;857575;-54
2021/11/11 04:21:31;;;;;;;14.47;4.14;;;;;;;-1.38;61.06;101278.92;359617;148;859008;-55
2021/11/11 04:22:33;;;;;;;8.39;4.70;;;;;;;-1.32;60.87;101275.91;361148;147;858996;-56
2021/11/11 04:23:35;;;;;;;7.16;3.32;;;;;;;-1.28;60.71;101270.22;357642;147;859064;-54
2021/11/11 04:24:38;;;;;;;5.56;3.16;;;;;;;-1.22;60.63;101268.06;360180;147;857527;-53
2021/11/11 04:27:07;;;;;;;;;;;;;;;;;;359896;147;864345;-58
2021/11/11 04:28:11;;;;;;;4.17;3.46;;;;;;;;;;358920;147;857734;-52
2021/11/11 04:29:21;;;;;;;6.36;3.99;;;;;;;;;;357005;147;858428;-53
2021/11/11 04:30:28;;;;;;;6.75;3.59;;;;;;;;;;357019;148;864885;-55
2021/11/11 04:31:32;;;;;;;11.83;4.68;;;;;;;;;;357634;148;858896;-55
2021/11/11 04:32:30;;;;;;;8.16;4.90;;;;;;;;;;358200;147;858205;-58
2021/11/11 04:33:32;;;;;;;9.76;3.84;;;;;;;;;;359190;147;859105;-56
2021/11/11 04:34:34;;;;;;;5.75;3.51;;;;;;;;;;359205;148;865075;-57
2021/11/11 04:35:38;;;;;;;7.33;4.49;;;;;;;;;;358205;147;857322;-57
2021/11/11 04:39:18;;;;;;;6.59;4.27;;;;;;;;;;357908;147;857736;-54
2021/11/11 04:46:21;;;;;;;10.57;5.42;;;;;;;;;;355489;148;864891;-54
2021/11/11 04:47:21;;;;;;;12.65;5.38;;;;;;;;;;356357;147;864196;-55
2021/11/11 04:50:56;;;;;;;10.83;5.02;;;;;;;;;;357659;147;865088;-55
2021/11/11 04:59:50;;;;;;;7.14;4.61;;;;;;;;;;360196;148;857412;-57
2021/11/11 05:01:14;;;;;;;7.05;4.47;;;;;;;;;;356411;147;857252;-55
2021/11/11 05:02:24;;;;;;;8.03;4.37;;;;;;;;;;354626;149;859086;-54
2021/11/11 05:04:13;;;;;;;6.45;3.76;;;;;;;;;;355572;148;856791;-58
2021/11/11 05:05:15;;;;;;;10.97;5.18;;;;;;;;;;359083;148;863952;-54
2021/11/11 05:06:18;;;;;;;8.13;5.05;;;;;;;;;;352154;149;857480;-55
2021/11/11 05:07:20;;;;;;;8.57;4.23;;;;;;;;;;356403;148;857252;-55
2021/11/11 05:08:22;;;;;;;5.33;4.34;;;;;;;;;;358212;149;857296;-56
2021/11/11 05:09:23;;;;;;;10.22;5.21;;;;;;;;;;355615;149;857656;-55
2021/11/11 05:10:25;;;;;;;6.17;3.61;;;;;;;;;;356382;149;865200;-55
2021/11/11 05:11:27;;;;;;;9.98;4.11;;;;;;;;;;356172;149;857211;-55
2021/11/11 05:12:29;;;;;;;20.55;5.41;;;;;;;;;;356932;148;866810;-54
2021/11/11 05:13:30;;;;;;;8.78;5.38;;;;;;;;;;352991;148;865281;-54
2021/11/11 05:14:32;;;;;;;9.11;5.36;;;;;;;;;;356335;148;860947;-56
2021/11/11 05:15:33;;;;;;;9.60;4.87;;;;;;;;;;358803;148;857280;-57
2021/11/11 05:16:36;;;;;;;9.57;4.79;;;;;;;;;;350335;150;857360;-54
2021/11/11 05:17:41;;;;;;;12.59;4.46;;;;;;;;;;350859;151;857452;-57
2021/11/11 05:18:42;;;;;;;8.11;4.18;;;;;;;;;;358088;147;866574;-53
2021/11/11 05:19:43;;;;;;;8.98;4.79;;;;;;;;;;356954;149;857888;-56
2021/11/11 05:20:45;;;;;;;8.22;5.02;;;;;;;;;;357870;148;865049;-53
2021/11/11 05:21:46;;;;;;;7.88;4.14;;;;;;;;;;357046;148;865608;-54
2021/11/11 05:22:48;;;;;;;10.36;5.61;;;;;;;;;;356737;148;863445;-54
2021/11/11 05:23:50;;;;;;;8.21;4.64;;;;;;;;;;356290;150;865435;-54
2021/11/11 05:24:52;;;;;;;9.41;4.33;;;;;;;;;;357899;147;864947;-58
2021/11/11 05:25:55;;;;;;;11.00;5.59;;;;;;;;;;356627;148;865367;-56
2021/11/11 05:27:03;;;;;;;12.52;5.81;;;;;;;;;;354726;149;856535;-55
2021/11/11 05:28:00;;;;;;;10.46;4.02;;;;;;;;;;355907;149;857972;-52
2021/11/11 05:29:01;;;;;;;8.42;4.99;;;;;;;;;;357032;148;860211;-54
2021/11/11 05:30:04;;;;;;;8.91;5.14;;;;;;;;;;356317;147;864954;-56
2021/11/11 05:31:06;;;;;;;10.05;4.71;;;;;;;;;;357740;149;865146;-53
2021/11/11 05:32:07;;;;;;;8.02;4.24;;;;;;;;;;357863;148;856456;-55
2021/11/11 05:33:09;;;;;;;10.49;6.06;;;;;;;;;;356877;148;866292;-55
2021/11/11 05:34:10;;;;;;;8.03;5.19;;;;;;;;;;355085;148;866272;-55
2021/11/11 05:35:12;;;;;;;9.73;4.83;;;;;;;;;;357215;148;866722;-56
2021/11/11 05:36:15;;;;;;;11.44;5.63;;;;;;;;;;354935;149;861731;-56
2021/11/11 05:37:17;;;;;;;6.91;4.08;;;;;;;;;;353094;149;856620;-55
2021/11/11 05:38:18;;;;;;;7.42;4.16;;;;;;;;;;353440;149;864871;-56
2021/11/11 05:39:20;;;;;;;10.42;5.04;;;;;;;;;;357883;147;864903;-56
2021/11/11 05:40:22;;;;;;;5.83;4.01;;;;;;;;;;355686;149;857500;-56
2021/11/11 05:41:24;;;;;;;5.06;3.32;;;;;;;;;;353462;149;857381;-55
2021/11/11 05:42:26;;;;;;;6.99;4.15;;;;;;;;;;357890;148;865813;-56
2021/11/11 05:43:27;;;;;;;7.99;4.66;;;;;;;;;;359035;148;859169;-56
2021/11/11 05:44:29;;;;;;;9.41;4.36;;;;;;;;;;357912;150;859371;-56
2021/11/11 05:45:32;;;;;;;9.64;4.64;;;;;;;;;;357940;149;865162;-56
2021/11/11 05:46:34;;;;;;;9.33;4.78;;;;;;;;;;355270;148;857743;-56
2021/11/11 05:47:36;;;;;;;11.08;5.10;;;;;;;;;;357733;148;859555;-60
2021/11/11 05:48:37;;;;;;;5.19;4.09;;;;;;;;;;359032;148;864813;-58
2021/11/11 05:49:39;;;;;;;8.44;4.43;;;;;;;;;;356910;148;867091;-59
2021/11/11 05:50:41;;;;;;;6.59;3.74;;;;;;;;;;350673;151;864926;-59
2021/11/11 05:51:42;;;;;;;7.68;4.45;;;;;;;;;;351702;150;866680;-56
2021/11/11 05:52:44;;;;;;;8.93;4.75;;;;;;;;;;356974;149;861988;-57
2021/11/11 05:53:45;;;;;;;8.46;4.48;;;;;;;;;;358640;148;866619;-56
2021/11/11 05:54:47;;;;;;;9.19;4.64;;;;;;;;;;357928;150;866055;-55
2021/11/11 05:55:49;;;;;;;8.03;4.84;;;;;;;;;;358221;149;865728;-56
2021/11/11 05:56:50;;;;;;;8.54;4.21;;;;;;;;;;358011;149;865399;-55
2021/11/11 05:57:52;;;;;;;8.77;5.23;;;;;;;;;;357937;148;857782;-55
2021/11/11 05:58:54;;;;;;;7.61;4.87;;;;;;;;;;354024;149;862600;-55
2021/11/11 05:59:56;;;;;;;11.11;5.49;;;;;;;;;;356926;148;859107;-54
2021/11/11 06:00:57;;;;;;;9.99;4.81;;;;;;;;;;357681;149;866345;-55
2021/11/11 06:02:00;;;;;;;4.75;3.49;;;;;;;;;;359029;149;865405;-56
2021/11/11 06:03:04;;;;;;;8.28;5.40;;;;;;;;;;357041;149;866428;-57
2021/11/11 06:04:06;;;;;;;7.09;3.90;;;;;;;;;;358614;147;856628;-57
2021/11/11 06:05:08;;;;;;;6.43;4.29;;;;;;;;;;349920;151;860367;-58
2021/11/11 06:06:10;;;;;;;12.45;5.91;;;;;;;;;;350995;151;857421;-56
2021/11/11 06:07:11;;;;;;;8.95;5.10;;;;;;;;;;356843;149;857365;-55
2021/11/11 06:08:13;;;;;;;5.49;4.25;;;;;;;;;;356245;149;865645;-56
2021/11/11 06:09:15;;;;;;;9.48;5.19;;;;;;;;;;356436;148;867084;-57
2021/11/11 06:10:17;;;;;;;6.46;4.45;;;;;;;;;;357589;148;857404;-57
2021/11/11 06:11:19;;;;;;;5.91;3.47;;;;;;;;;;357482;148;857453;-55
2021/11/11 06:12:21;;;;;;;6.44;4.59;;;;;;;;;;355894;147;860425;-59
2021/11/11 06:13:23;;;;;;;5.92;3.28;;;;;;;;;;356055;148;865021;-57
2021/11/11 06:14:25;;;;;;;6.70;4.39;;;;;;;;;;351501;150;857308;-57
2021/11/11 06:15:27;;;;;;;8.89;4.39;;;;;;;;;;350592;150;856525;-57
2021/11/11 06:16:29;;;;;;;7.34;4.15;;;;;;;;;;358202;150;856549;-56
2021/11/11 06:17:31;;;;;;;5.99;4.08;;;;;;;;;;357840;149;857022;-57
2021/11/11 06:18:32;;;;;;;7.07;4.52;;;;;;;;;;358387;148;863786;-58
2021/11/11 06:19:35;;;;;;;6.91;4.01;;;;;;;;;;357165;150;857435;-57
2021/11/11 06:20:45;;;;;;;7.61;4.59;;;;;;;;;;357450;149;857794;-57
2021/11/11 06:21:47;;;;;;;7.53;4.65;;;;;;;;;;357964;148;858904;-56
2021/11/11 06:22:49;;;;;;;6.31;4.03;;;;;;;;;;358886;148;857607;-56
2021/11/11 06:23:51;;;;;;;7.89;3.75;;;;;;;;;;351733;153;857839;-55
2021/11/11 06:24:53;;;;;;;11.03;4.35;;;;;;;;;;356380;147;857435;-57
2021/11/11 06:25:55;;;;;;;5.46;3.93;;;;;;;;;;357873;149;859501;-54
2021/11/11 06:26:57;;;;;;;7.03;4.39;;;;;;;;;;358119;149;859171;-58
2021/11/11 06:27:58;;;;;;;7.02;4.02;;;;;;;;;;354387;148;865221;-56
2021/11/11 06:29:00;;;;;;;5.30;3.86;;;;;;;;;;358806;147;858151;-57
2021/11/11 06:30:02;;;;;;;7.87;4.77;;;;;;;;;;356409;149;865056;-57
2021/11/11 06:31:03;;;;;;;4.77;3.27;;;;;;;;;;352331;151;857680;-58
2021/11/11 06:32:05;;;;;;;4.96;3.69;;;;;;;;;;350527;151;858650;-59
2021/11/11 06:33:07;;;;;;;5.51;3.27;;;;;;;;;;357467;149;862824;-58
2021/11/11 06:34:08;;;;;;;8.95;5.11;;;;;;;;;;357488;149;858253;-59
2021/11/11 06:35:10;;;;;;;9.64;4.40;;;;;;;;;;354983;149;864809;-57
2021/11/11 06:36:12;;;;;;;8.04;4.61;;;;;;;;;;357386;149;857591;-57
2021/11/11 06:37:13;;;;;;;6.69;4.74;;;;;;;;;;353077;150;864918;-57
2021/11/11 06:38:15;;;;;;;6.03;4.06;;;;;;;;;;353518;147;866627;-57
2021/11/11 06:39:17;;;;;;;9.64;4.67;;;;;;;;;;358719;148;859055;-56
2021/11/11 06:40:19;;;;;;;7.03;4.39;;;;;;;;;;358434;148;865958;-56
2021/11/11 06:41:21;;;;;;;7.51;4.26;;;;;;;;;;355458;147;865064;-56
2021/11/11 06:42:23;;;;;;;9.07;4.74;;;;;;;;;;355563;147;863801;-57
2021/11/11 06:43:24;;;;;;;8.40;5.17;;;;;;;;;;358827;149;858413;-57
2021/11/11 06:44:26;;;;;;;6.53;4.50;;;;;;;;;;355895;149;863649;-57
2021/11/11 06:45:28;;;;;;;10.75;4.59;;;;;;;;;;358079;149;864388;-57
2021/11/11 06:46:30;;;;;;;8.45;4.59;;;;;;;;;;356549;148;858023;-57
2021/11/11 06:47:32;;;;;;;7.77;4.29;;;;;;;;;;356085;149;856632;-57
2021/11/11 06:48:33;;;;;;;10.72;4.81;;;;;;;;;;356963;149;856201;-57
2021/11/11 06:49:35;;;;;;;10.81;4.75;;;;;;;;;;351302;150;863916;-57
2021/11/11 06:50:37;;;;;;;5.61;3.41;;;;;;;;;;349762;150;863990;-57
2021/11/11 06:51:39;;;;;;;6.57;3.62;;;;;;;;;;355827;149;864184;-57
2021/11/11 06:52:41;;;;;;;8.29;4.71;;;;;;;;;;357341;147;856720;-56